sensor_id;sensor_type;location;lat;lon;timestamp;temperature;humidity
20856;DHT22;63058;49.424;8.420;2024-02-26T00:00:29;11.80;91.40
20856;DHT22;63058;49.424;8.420;2024-02-26T00:02:56;11.80;91.40
20856;DHT22;63058;49.424;8.420;2024-02-26T00:05:21;11.80;91.50
20856;DHT22;63058;49.424;8.420;2024-02-26T00:07:47;11.80;91.60
20856;DHT22;63058;49.424;8.420;2024-02-26T00:10:13;11.70;91.60
20856;DHT22;63058;49.424;8.420;2024-02-26T00:12:39;11.80;91.60
20856;DHT22;63058;49.424;8.420;2024-02-26T00:15:06;11.70;91.60
20856;DHT22;63058;49.424;8.420;2024-02-26T00:17:32;11.70;91.60
20856;DHT22;63058;49.424;8.420;2024-02-26T00:19:58;11.70;91.60
20856;DHT22;63058;49.424;8.420;2024-02-26T00:22:23;11.70;91.60
20856;DHT22;63058;49.424;8.420;2024-02-26T00:24:49;11.70;91.70
20856;DHT22;63058;49.424;8.420;2024-02-26T00:27:14;11.70;91.70
20856;DHT22;63058;49.424;8.420;2024-02-26T00:29:40;11.70;91.60
20856;DHT22;63058;49.424;8.420;2024-02-26T00:32:06;11.70;91.60
20856;DHT22;63058;49.424;8.420;2024-02-26T00:34:31;11.70;91.60
20856;DHT22;63058;49.424;8.420;2024-02-26T00:36:57;11.70;91.70
20856;DHT22;63058;49.424;8.420;2024-02-26T00:39:22;11.70;91.60
20856;DHT22;63058;49.424;8.420;2024-02-26T00:41:48;11.70;91.70
20856;DHT22;63058;49.424;8.420;2024-02-26T00:44:14;11.70;91.70
20856;DHT22;63058;49.424;8.420;2024-02-26T00:46:39;11.70;91.80
20856;DHT22;63058;49.424;8.420;2024-02-26T00:49:05;11.70;91.70
20856;DHT22;63058;49.424;8.420;2024-02-26T00:51:31;11.70;91.70
20856;DHT22;63058;49.424;8.420;2024-02-26T00:53:56;11.70;91.70
20856;DHT22;63058;49.424;8.420;2024-02-26T00:56:22;11.70;91.70
20856;DHT22;63058;49.424;8.420;2024-02-26T00:58:48;11.70;91.70
20856;DHT22;63058;49.424;8.420;2024-02-26T01:01:13;11.70;91.80
20856;DHT22;63058;49.424;8.420;2024-02-26T01:03:39;11.60;91.80
20856;DHT22;63058;49.424;8.420;2024-02-26T01:06:04;11.60;91.80
20856;DHT22;63058;49.424;8.420;2024-02-26T01:08:30;11.60;91.90
20856;DHT22;63058;49.424;8.420;2024-02-26T01:10:57;11.60;91.90
20856;DHT22;63058;49.424;8.420;2024-02-26T01:13:22;11.60;92.00
20856;DHT22;63058;49.424;8.420;2024-02-26T01:15:48;11.60;92.00
20856;DHT22;63058;49.424;8.420;2024-02-26T01:18:13;11.60;92.00
20856;DHT22;63058;49.424;8.420;2024-02-26T01:20:39;11.60;92.10
20856;DHT22;63058;49.424;8.420;2024-02-26T01:23:04;11.60;92.20
20856;DHT22;63058;49.424;8.420;2024-02-26T01:25:30;11.60;92.20
20856;DHT22;63058;49.424;8.420;2024-02-26T01:27:56;11.60;92.20
20856;DHT22;63058;49.424;8.420;2024-02-26T01:30:21;11.60;92.30
20856;DHT22;63058;49.424;8.420;2024-02-26T01:32:47;11.60;92.30
20856;DHT22;63058;49.424;8.420;2024-02-26T01:35:12;11.50;92.30
20856;DHT22;63058;49.424;8.420;2024-02-26T01:37:38;11.50;92.40
20856;DHT22;63058;49.424;8.420;2024-02-26T01:40:06;11.50;92.40
20856;DHT22;63058;49.424;8.420;2024-02-26T01:42:32;11.50;92.30
20856;DHT22;63058;49.424;8.420;2024-02-26T01:44:59;11.50;92.80
20856;DHT22;63058;49.424;8.420;2024-02-26T01:47:27;11.40;92.40
20856;DHT22;63058;49.424;8.420;2024-02-26T01:49:54;11.40;92.40
20856;DHT22;63058;49.424;8.420;2024-02-26T01:52:21;11.40;92.50
20856;DHT22;63058;49.424;8.420;2024-02-26T01:54:47;11.30;92.40
20856;DHT22;63058;49.424;8.420;2024-02-26T01:57:13;11.30;92.60
20856;DHT22;63058;49.424;8.420;2024-02-26T01:59:40;11.30;92.60
20856;DHT22;63058;49.424;8.420;2024-02-26T02:02:08;11.20;92.80
20856;DHT22;63058;49.424;8.420;2024-02-26T02:04:36;11.20;93.00
20856;DHT22;63058;49.424;8.420;2024-02-26T02:07:02;11.20;93.20
20856;DHT22;63058;49.424;8.420;2024-02-26T02:09:28;11.10;93.40
20856;DHT22;63058;49.424;8.420;2024-02-26T02:11:54;11.10;93.60
20856;DHT22;63058;49.424;8.420;2024-02-26T02:14:20;11.10;93.70
20856;DHT22;63058;49.424;8.420;2024-02-26T02:16:46;11.00;93.90
20856;DHT22;63058;49.424;8.420;2024-02-26T02:19:12;11.00;94.00
20856;DHT22;63058;49.424;8.420;2024-02-26T02:21:38;11.00;94.20
20856;DHT22;63058;49.424;8.420;2024-02-26T02:24:04;11.00;94.30
20856;DHT22;63058;49.424;8.420;2024-02-26T02:26:29;10.90;94.40
20856;DHT22;63058;49.424;8.420;2024-02-26T02:28:55;10.90;94.50
20856;DHT22;63058;49.424;8.420;2024-02-26T02:31:21;10.90;94.70
20856;DHT22;63058;49.424;8.420;2024-02-26T02:33:46;10.80;94.80
20856;DHT22;63058;49.424;8.420;2024-02-26T02:36:12;10.90;95.00
20856;DHT22;63058;49.424;8.420;2024-02-26T02:38:38;10.80;95.10
20856;DHT22;63058;49.424;8.420;2024-02-26T02:41:04;10.80;95.20
20856;DHT22;63058;49.424;8.420;2024-02-26T02:43:30;10.80;95.30
20856;DHT22;63058;49.424;8.420;2024-02-26T02:45:55;10.70;95.40
20856;DHT22;63058;49.424;8.420;2024-02-26T02:48:21;10.70;95.50
20856;DHT22;63058;49.424;8.420;2024-02-26T02:50:47;10.70;95.60
20856;DHT22;63058;49.424;8.420;2024-02-26T02:53:12;10.60;95.80
20856;DHT22;63058;49.424;8.420;2024-02-26T02:55:38;10.60;95.90
20856;DHT22;63058;49.424;8.420;2024-02-26T02:58:03;10.60;96.10
20856;DHT22;63058;49.424;8.420;2024-02-26T03:00:29;10.60;96.30
20856;DHT22;63058;49.424;8.420;2024-02-26T03:02:54;10.60;96.50
20856;DHT22;63058;49.424;8.420;2024-02-26T03:05:20;10.60;96.60
20856;DHT22;63058;49.424;8.420;2024-02-26T03:07:46;10.50;96.80
20856;DHT22;63058;49.424;8.420;2024-02-26T03:10:11;10.50;96.90
20856;DHT22;63058;49.424;8.420;2024-02-26T03:12:37;10.60;97.00
20856;DHT22;63058;49.424;8.420;2024-02-26T03:15:02;10.60;97.10
20856;DHT22;63058;49.424;8.420;2024-02-26T03:17:29;10.50;97.30
20856;DHT22;63058;49.424;8.420;2024-02-26T03:19:54;10.60;97.40
20856;DHT22;63058;49.424;8.420;2024-02-26T03:22:20;10.50;97.50
20856;DHT22;63058;49.424;8.420;2024-02-26T03:24:46;10.50;97.60
20856;DHT22;63058;49.424;8.420;2024-02-26T03:27:12;10.50;97.80
20856;DHT22;63058;49.424;8.420;2024-02-26T03:29:37;10.50;97.90
20856;DHT22;63058;49.424;8.420;2024-02-26T03:32:04;10.50;98.00
20856;DHT22;63058;49.424;8.420;2024-02-26T03:34:29;10.50;98.10
20856;DHT22;63058;49.424;8.420;2024-02-26T03:36:56;10.40;98.20
20856;DHT22;63058;49.424;8.420;2024-02-26T03:39:21;10.40;98.30
20856;DHT22;63058;49.424;8.420;2024-02-26T03:41:48;10.40;98.50
20856;DHT22;63058;49.424;8.420;2024-02-26T03:44:13;10.40;98.60
20856;DHT22;63058;49.424;8.420;2024-02-26T03:46:39;10.40;98.80
20856;DHT22;63058;49.424;8.420;2024-02-26T03:49:04;10.40;98.80
20856;DHT22;63058;49.424;8.420;2024-02-26T03:51:31;10.40;98.90
20856;DHT22;63058;49.424;8.420;2024-02-26T03:53:58;10.50;99.30
20856;DHT22;63058;49.424;8.420;2024-02-26T03:56:25;10.40;99.00
20856;DHT22;63058;49.424;8.420;2024-02-26T03:58:50;10.40;99.00
20856;DHT22;63058;49.424;8.420;2024-02-26T04:01:16;10.40;99.00
20856;DHT22;63058;49.424;8.420;2024-02-26T04:03:41;10.40;99.00
20856;DHT22;63058;49.424;8.420;2024-02-26T04:06:11;10.40;99.10
20856;DHT22;63058;49.424;8.420;2024-02-26T04:08:37;10.40;98.90
20856;DHT22;63058;49.424;8.420;2024-02-26T04:11:03;10.50;99.10
20856;DHT22;63058;49.424;8.420;2024-02-26T04:13:33;10.50;99.20
20856;DHT22;63058;49.424;8.420;2024-02-26T04:15:59;10.50;99.20
20856;DHT22;63058;49.424;8.420;2024-02-26T04:18:27;10.50;99.20
20856;DHT22;63058;49.424;8.420;2024-02-26T04:20:52;10.60;99.30
20856;DHT22;63058;49.424;8.420;2024-02-26T04:23:18;10.60;99.30
20856;DHT22;63058;49.424;8.420;2024-02-26T04:25:44;10.60;99.20
20856;DHT22;63058;49.424;8.420;2024-02-26T04:28:10;10.60;99.30
20856;DHT22;63058;49.424;8.420;2024-02-26T04:30:36;10.60;99.30
20856;DHT22;63058;49.424;8.420;2024-02-26T04:33:01;10.70;99.30
20856;DHT22;63058;49.424;8.420;2024-02-26T04:35:27;10.70;99.30
20856;DHT22;63058;49.424;8.420;2024-02-26T04:37:53;10.60;99.40
20856;DHT22;63058;49.424;8.420;2024-02-26T04:40:18;10.70;99.30
20856;DHT22;63058;49.424;8.420;2024-02-26T04:42:44;10.70;99.40
20856;DHT22;63058;49.424;8.420;2024-02-26T04:45:09;10.70;99.40
20856;DHT22;63058;49.424;8.420;2024-02-26T04:47:35;10.70;99.40
20856;DHT22;63058;49.424;8.420;2024-02-26T04:50:00;10.70;99.40
20856;DHT22;63058;49.424;8.420;2024-02-26T04:52:26;10.70;99.40
20856;DHT22;63058;49.424;8.420;2024-02-26T04:54:51;10.70;99.40
20856;DHT22;63058;49.424;8.420;2024-02-26T04:57:17;10.70;99.50
20856;DHT22;63058;49.424;8.420;2024-02-26T04:59:44;10.70;99.50
20856;DHT22;63058;49.424;8.420;2024-02-26T05:02:11;10.70;99.80
20856;DHT22;63058;49.424;8.420;2024-02-26T05:04:37;10.70;99.50
20856;DHT22;63058;49.424;8.420;2024-02-26T05:07:02;10.70;99.70
20856;DHT22;63058;49.424;8.420;2024-02-26T05:09:29;10.70;99.70
20856;DHT22;63058;49.424;8.420;2024-02-26T05:11:54;10.70;99.80
20856;DHT22;63058;49.424;8.420;2024-02-26T05:14:20;10.70;99.80
20856;DHT22;63058;49.424;8.420;2024-02-26T05:16:45;10.70;99.80
20856;DHT22;63058;49.424;8.420;2024-02-26T05:19:11;10.70;99.90
20856;DHT22;63058;49.424;8.420;2024-02-26T05:21:36;10.70;99.90
20856;DHT22;63058;49.424;8.420;2024-02-26T05:24:02;10.70;99.90
20856;DHT22;63058;49.424;8.420;2024-02-26T05:26:28;10.70;99.90
20856;DHT22;63058;49.424;8.420;2024-02-26T05:28:53;10.70;99.90
20856;DHT22;63058;49.424;8.420;2024-02-26T05:31:24;10.70;99.90
20856;DHT22;63058;49.424;8.420;2024-02-26T05:33:50;10.80;99.90
20856;DHT22;63058;49.424;8.420;2024-02-26T05:36:20;10.70;99.90
20856;DHT22;63058;49.424;8.420;2024-02-26T05:38:46;10.70;99.90
20856;DHT22;63058;49.424;8.420;2024-02-26T05:41:12;10.70;99.90
20856;DHT22;63058;49.424;8.420;2024-02-26T05:43:37;10.70;99.90
20856;DHT22;63058;49.424;8.420;2024-02-26T05:46:03;10.70;99.90
20856;DHT22;63058;49.424;8.420;2024-02-26T05:48:29;10.60;99.90
20856;DHT22;63058;49.424;8.420;2024-02-26T05:50:54;10.60;99.90
20856;DHT22;63058;49.424;8.420;2024-02-26T05:53:20;10.60;99.90
20856;DHT22;63058;49.424;8.420;2024-02-26T05:55:46;10.60;99.90
20856;DHT22;63058;49.424;8.420;2024-02-26T05:58:11;10.60;99.90
20856;DHT22;63058;49.424;8.420;2024-02-26T06:00:37;10.50;99.90
20856;DHT22;63058;49.424;8.420;2024-02-26T06:03:02;10.40;99.90
20856;DHT22;63058;49.424;8.420;2024-02-26T06:05:28;10.40;99.90
20856;DHT22;63058;49.424;8.420;2024-02-26T06:07:53;10.30;99.90
20856;DHT22;63058;49.424;8.420;2024-02-26T06:10:20;10.30;99.90
20856;DHT22;63058;49.424;8.420;2024-02-26T06:12:47;10.30;99.90
20856;DHT22;63058;49.424;8.420;2024-02-26T06:15:12;10.20;99.90
20856;DHT22;63058;49.424;8.420;2024-02-26T06:17:38;10.20;99.90
20856;DHT22;63058;49.424;8.420;2024-02-26T06:20:04;10.20;99.90
20856;DHT22;63058;49.424;8.420;2024-02-26T06:22:31;10.20;99.90
20856;DHT22;63058;49.424;8.420;2024-02-26T06:24:57;10.10;99.90
20856;DHT22;63058;49.424;8.420;2024-02-26T06:27:23;10.10;99.90
20856;DHT22;63058;49.424;8.420;2024-02-26T06:29:49;10.10;99.90
20856;DHT22;63058;49.424;8.420;2024-02-26T06:32:14;10.10;99.90
20856;DHT22;63058;49.424;8.420;2024-02-26T06:34:40;10.00;99.90
20856;DHT22;63058;49.424;8.420;2024-02-26T06:37:07;10.00;99.90
20856;DHT22;63058;49.424;8.420;2024-02-26T06:39:33;10.00;99.90
20856;DHT22;63058;49.424;8.420;2024-02-26T06:41:59;10.00;99.90
20856;DHT22;63058;49.424;8.420;2024-02-26T06:44:27;10.00;99.90
20856;DHT22;63058;49.424;8.420;2024-02-26T06:47:00;10.00;99.90
20856;DHT22;63058;49.424;8.420;2024-02-26T06:49:26;10.00;99.90
20856;DHT22;63058;49.424;8.420;2024-02-26T06:51:52;10.00;99.90
20856;DHT22;63058;49.424;8.420;2024-02-26T06:54:18;10.10;99.90
20856;DHT22;63058;49.424;8.420;2024-02-26T06:56:43;10.10;99.90
20856;DHT22;63058;49.424;8.420;2024-02-26T06:59:09;10.10;99.90
20856;DHT22;63058;49.424;8.420;2024-02-26T07:01:34;10.10;99.90
20856;DHT22;63058;49.424;8.420;2024-02-26T07:04:00;10.20;99.90
20856;DHT22;63058;49.424;8.420;2024-02-26T07:06:28;10.20;99.90
20856;DHT22;63058;49.424;8.420;2024-02-26T07:08:54;10.30;99.90
20856;DHT22;63058;49.424;8.420;2024-02-26T07:11:20;10.30;99.90
20856;DHT22;63058;49.424;8.420;2024-02-26T07:13:46;10.30;99.90
20856;DHT22;63058;49.424;8.420;2024-02-26T07:16:12;10.40;99.90
20856;DHT22;63058;49.424;8.420;2024-02-26T07:18:39;10.40;99.90
20856;DHT22;63058;49.424;8.420;2024-02-26T07:21:05;10.40;99.90
20856;DHT22;63058;49.424;8.420;2024-02-26T07:23:31;10.50;99.90
20856;DHT22;63058;49.424;8.420;2024-02-26T07:25:56;10.50;99.90
20856;DHT22;63058;49.424;8.420;2024-02-26T07:28:22;10.50;99.90
20856;DHT22;63058;49.424;8.420;2024-02-26T07:30:48;10.50;99.90
20856;DHT22;63058;49.424;8.420;2024-02-26T07:33:13;10.60;99.90
20856;DHT22;63058;49.424;8.420;2024-02-26T07:35:39;10.60;99.90
20856;DHT22;63058;49.424;8.420;2024-02-26T07:38:05;10.60;99.90
20856;DHT22;63058;49.424;8.420;2024-02-26T07:40:30;10.60;99.90
20856;DHT22;63058;49.424;8.420;2024-02-26T07:42:56;10.60;99.90
20856;DHT22;63058;49.424;8.420;2024-02-26T07:45:22;10.70;99.90
20856;DHT22;63058;49.424;8.420;2024-02-26T07:47:48;10.70;99.90
20856;DHT22;63058;49.424;8.420;2024-02-26T07:50:13;10.70;99.90
20856;DHT22;63058;49.424;8.420;2024-02-26T07:52:39;10.70;99.90
20856;DHT22;63058;49.424;8.420;2024-02-26T07:55:05;10.70;99.90
20856;DHT22;63058;49.424;8.420;2024-02-26T07:57:32;10.70;99.90
20856;DHT22;63058;49.424;8.420;2024-02-26T08:00:05;10.70;99.90
20856;DHT22;63058;49.424;8.420;2024-02-26T08:02:35;10.80;99.90
20856;DHT22;63058;49.424;8.420;2024-02-26T08:05:01;10.80;99.90
20856;DHT22;63058;49.424;8.420;2024-02-26T08:07:26;10.80;99.90
20856;DHT22;63058;49.424;8.420;2024-02-26T08:09:52;10.80;99.90
20856;DHT22;63058;49.424;8.420;2024-02-26T08:12:18;10.90;99.90
20856;DHT22;63058;49.424;8.420;2024-02-26T08:14:43;10.90;99.90
20856;DHT22;63058;49.424;8.420;2024-02-26T08:17:09;10.90;99.90
20856;DHT22;63058;49.424;8.420;2024-02-26T08:19:35;11.00;99.90
20856;DHT22;63058;49.424;8.420;2024-02-26T08:22:01;11.00;99.90
20856;DHT22;63058;49.424;8.420;2024-02-26T08:24:27;11.10;99.90
20856;DHT22;63058;49.424;8.420;2024-02-26T08:26:52;11.20;99.90
20856;DHT22;63058;49.424;8.420;2024-02-26T08:29:18;11.20;99.90
20856;DHT22;63058;49.424;8.420;2024-02-26T08:31:43;11.20;99.90
20856;DHT22;63058;49.424;8.420;2024-02-26T08:34:09;11.30;99.90
20856;DHT22;63058;49.424;8.420;2024-02-26T08:36:35;11.40;99.90
20856;DHT22;63058;49.424;8.420;2024-02-26T08:39:00;11.40;99.90
20856;DHT22;63058;49.424;8.420;2024-02-26T08:41:26;11.50;99.90
20856;DHT22;63058;49.424;8.420;2024-02-26T08:43:52;11.60;99.90
20856;DHT22;63058;49.424;8.420;2024-02-26T08:46:17;11.60;99.90
20856;DHT22;63058;49.424;8.420;2024-02-26T08:48:43;11.60;99.90
20856;DHT22;63058;49.424;8.420;2024-02-26T08:51:09;11.60;99.90
20856;DHT22;63058;49.424;8.420;2024-02-26T08:53:35;11.60;99.90
20856;DHT22;63058;49.424;8.420;2024-02-26T08:56:01;11.70;99.90
20856;DHT22;63058;49.424;8.420;2024-02-26T08:58:30;11.70;99.90
20856;DHT22;63058;49.424;8.420;2024-02-26T09:00:55;11.80;99.90
20856;DHT22;63058;49.424;8.420;2024-02-26T09:03:21;11.80;99.90
20856;DHT22;63058;49.424;8.420;2024-02-26T09:05:47;11.80;99.90
20856;DHT22;63058;49.424;8.420;2024-02-26T09:08:13;11.90;99.90
20856;DHT22;63058;49.424;8.420;2024-02-26T09:10:39;11.90;99.90
20856;DHT22;63058;49.424;8.420;2024-02-26T09:13:05;12.00;99.90
20856;DHT22;63058;49.424;8.420;2024-02-26T09:15:30;12.00;99.90
20856;DHT22;63058;49.424;8.420;2024-02-26T09:17:56;12.10;99.90
20856;DHT22;63058;49.424;8.420;2024-02-26T09:20:22;12.10;99.90
20856;DHT22;63058;49.424;8.420;2024-02-26T09:22:49;12.20;99.90
20856;DHT22;63058;49.424;8.420;2024-02-26T09:25:16;12.20;99.90
20856;DHT22;63058;49.424;8.420;2024-02-26T09:27:42;12.20;99.90
20856;DHT22;63058;49.424;8.420;2024-02-26T09:30:12;12.30;99.90
20856;DHT22;63058;49.424;8.420;2024-02-26T09:32:38;12.30;99.90
20856;DHT22;63058;49.424;8.420;2024-02-26T09:35:04;12.30;99.90
20856;DHT22;63058;49.424;8.420;2024-02-26T09:37:29;12.40;99.90
20856;DHT22;63058;49.424;8.420;2024-02-26T09:39:55;12.40;99.90
20856;DHT22;63058;49.424;8.420;2024-02-26T09:42:21;12.50;99.90
20856;DHT22;63058;49.424;8.420;2024-02-26T09:44:53;12.60;99.90
20856;DHT22;63058;49.424;8.420;2024-02-26T09:47:20;12.70;99.90
20856;DHT22;63058;49.424;8.420;2024-02-26T09:49:47;12.90;99.90
20856;DHT22;63058;49.424;8.420;2024-02-26T09:52:15;13.00;99.90
20856;DHT22;63058;49.424;8.420;2024-02-26T09:54:41;13.20;99.90
20856;DHT22;63058;49.424;8.420;2024-02-26T09:57:09;13.30;99.90
20856;DHT22;63058;49.424;8.420;2024-02-26T09:59:41;13.30;99.90
20856;DHT22;63058;49.424;8.420;2024-02-26T10:02:13;13.40;99.90
20856;DHT22;63058;49.424;8.420;2024-02-26T10:04:42;13.50;99.90
20856;DHT22;63058;49.424;8.420;2024-02-26T10:07:12;13.50;99.90
20856;DHT22;63058;49.424;8.420;2024-02-26T10:09:38;13.60;99.90
20856;DHT22;63058;49.424;8.420;2024-02-26T10:12:05;13.70;99.90
20856;DHT22;63058;49.424;8.420;2024-02-26T10:14:32;13.70;99.90
20856;DHT22;63058;49.424;8.420;2024-02-26T10:16:58;13.70;99.90
20856;DHT22;63058;49.424;8.420;2024-02-26T10:19:27;13.80;99.90
20856;DHT22;63058;49.424;8.420;2024-02-26T10:21:57;13.90;99.90
20856;DHT22;63058;49.424;8.420;2024-02-26T10:24:27;13.90;99.90
20856;DHT22;63058;49.424;8.420;2024-02-26T10:26:54;14.10;99.90
20856;DHT22;63058;49.424;8.420;2024-02-26T10:29:21;14.20;99.90
20856;DHT22;63058;49.424;8.420;2024-02-26T10:31:47;14.40;99.90
20856;DHT22;63058;49.424;8.420;2024-02-26T10:34:14;14.60;99.90
20856;DHT22;63058;49.424;8.420;2024-02-26T10:36:40;14.80;99.90
20856;DHT22;63058;49.424;8.420;2024-02-26T10:39:11;14.90;99.90
20856;DHT22;63058;49.424;8.420;2024-02-26T10:41:37;15.00;99.90
20856;DHT22;63058;49.424;8.420;2024-02-26T10:44:04;15.20;99.90
20856;DHT22;63058;49.424;8.420;2024-02-26T10:46:29;15.20;99.90
20856;DHT22;63058;49.424;8.420;2024-02-26T10:48:56;15.20;99.90
20856;DHT22;63058;49.424;8.420;2024-02-26T10:51:30;15.20;99.90
20856;DHT22;63058;49.424;8.420;2024-02-26T10:53:57;15.30;99.90
20856;DHT22;63058;49.424;8.420;2024-02-26T10:56:28;15.40;99.90
20856;DHT22;63058;49.424;8.420;2024-02-26T10:58:55;15.60;99.90
20856;DHT22;63058;49.424;8.420;2024-02-26T11:01:21;15.80;99.90
20856;DHT22;63058;49.424;8.420;2024-02-26T11:03:52;16.10;99.90
20856;DHT22;63058;49.424;8.420;2024-02-26T11:06:22;16.30;99.90
20856;DHT22;63058;49.424;8.420;2024-02-26T11:08:51;16.50;99.90
20856;DHT22;63058;49.424;8.420;2024-02-26T11:11:18;16.70;99.90
20856;DHT22;63058;49.424;8.420;2024-02-26T11:13:46;16.90;99.90
20856;DHT22;63058;49.424;8.420;2024-02-26T11:16:18;16.90;99.90
20856;DHT22;63058;49.424;8.420;2024-02-26T11:18:48;16.90;99.90
20856;DHT22;63058;49.424;8.420;2024-02-26T11:21:18;16.80;99.90
20856;DHT22;63058;49.424;8.420;2024-02-26T11:23:46;16.80;99.90
20856;DHT22;63058;49.424;8.420;2024-02-26T11:26:12;16.60;99.90
20856;DHT22;63058;49.424;8.420;2024-02-26T11:28:41;16.50;99.90
20856;DHT22;63058;49.424;8.420;2024-02-26T11:31:07;16.40;99.90
20856;DHT22;63058;49.424;8.420;2024-02-26T11:33:35;16.30;99.90
20856;DHT22;63058;49.424;8.420;2024-02-26T11:36:09;16.30;99.90
20856;DHT22;63058;49.424;8.420;2024-02-26T11:38:36;16.30;99.90
20856;DHT22;63058;49.424;8.420;2024-02-26T11:41:01;16.30;99.90
20856;DHT22;63058;49.424;8.420;2024-02-26T11:43:50;16.40;99.90
20856;DHT22;63058;49.424;8.420;2024-02-26T11:46:30;16.50;99.90
20856;DHT22;63058;49.424;8.420;2024-02-26T11:49:03;16.50;99.90
20856;DHT22;63058;49.424;8.420;2024-02-26T11:51:51;16.60;99.90
20856;DHT22;63058;49.424;8.420;2024-02-26T11:57:26;16.70;99.90
20856;DHT22;63058;49.424;8.420;2024-02-26T11:59:53;16.70;99.90
20856;DHT22;63058;49.424;8.420;2024-02-26T12:02:47;16.90;99.90
20856;DHT22;63058;49.424;8.420;2024-02-26T12:05:22;16.90;99.90
20856;DHT22;63058;49.424;8.420;2024-02-26T12:07:55;17.10;99.90
20856;DHT22;63058;49.424;8.420;2024-02-26T12:12:54;17.50;99.90
20856;DHT22;63058;49.424;8.420;2024-02-26T12:15:22;17.80;99.90
20856;DHT22;63058;49.424;8.420;2024-02-26T12:17:48;18.20;99.90
20856;DHT22;63058;49.424;8.420;2024-02-26T12:20:17;18.60;99.90
20856;DHT22;63058;49.424;8.420;2024-02-26T12:22:45;19.10;99.90
20856;DHT22;63058;49.424;8.420;2024-02-26T12:25:14;19.60;99.90
20856;DHT22;63058;49.424;8.420;2024-02-26T12:27:40;20.10;99.90
20856;DHT22;63058;49.424;8.420;2024-02-26T12:30:06;20.50;99.90
20856;DHT22;63058;49.424;8.420;2024-02-26T12:32:32;20.80;99.90
20856;DHT22;63058;49.424;8.420;2024-02-26T12:34:58;20.90;99.90
20856;DHT22;63058;49.424;8.420;2024-02-26T12:37:25;21.00;99.90
20856;DHT22;63058;49.424;8.420;2024-02-26T12:39:51;21.00;99.90
20856;DHT22;63058;49.424;8.420;2024-02-26T12:42:17;21.20;99.90
20856;DHT22;63058;49.424;8.420;2024-02-26T12:44:46;21.20;99.90
20856;DHT22;63058;49.424;8.420;2024-02-26T12:47:11;21.30;99.90
20856;DHT22;63058;49.424;8.420;2024-02-26T12:49:42;21.50;99.90
20856;DHT22;63058;49.424;8.420;2024-02-26T12:52:09;21.70;99.90
20856;DHT22;63058;49.424;8.420;2024-02-26T12:54:36;22.10;99.90
20856;DHT22;63058;49.424;8.420;2024-02-26T12:57:05;22.60;99.90
20856;DHT22;63058;49.424;8.420;2024-02-26T12:59:32;22.90;99.90
20856;DHT22;63058;49.424;8.420;2024-02-26T13:01:59;23.30;99.90
20856;DHT22;63058;49.424;8.420;2024-02-26T13:04:26;23.40;97.80
20856;DHT22;63058;49.424;8.420;2024-02-26T13:06:53;23.50;96.80
20856;DHT22;63058;49.424;8.420;2024-02-26T13:09:18;23.40;96.10
20856;DHT22;63058;49.424;8.420;2024-02-26T13:11:45;23.30;95.80
20856;DHT22;63058;49.424;8.420;2024-02-26T13:14:22;23.10;96.30
20856;DHT22;63058;49.424;8.420;2024-02-26T13:16:58;22.90;93.50
20856;DHT22;63058;49.424;8.420;2024-02-26T13:19:24;22.80;93.30
20856;DHT22;63058;49.424;8.420;2024-02-26T13:21:49;22.60;95.30
20856;DHT22;63058;49.424;8.420;2024-02-26T13:24:15;22.40;95.80
20856;DHT22;63058;49.424;8.420;2024-02-26T13:26:40;22.30;95.90
20856;DHT22;63058;49.424;8.420;2024-02-26T13:29:06;22.40;96.80
20856;DHT22;63058;49.424;8.420;2024-02-26T13:31:38;22.50;97.10
20856;DHT22;63058;49.424;8.420;2024-02-26T13:34:04;22.60;96.30
20856;DHT22;63058;49.424;8.420;2024-02-26T13:36:29;22.80;95.80
20856;DHT22;63058;49.424;8.420;2024-02-26T13:38:55;22.80;94.60
20856;DHT22;63058;49.424;8.420;2024-02-26T13:41:24;22.80;94.30
20856;DHT22;63058;49.424;8.420;2024-02-26T13:43:50;22.80;94.10
20856;DHT22;63058;49.424;8.420;2024-02-26T13:46:16;22.80;94.80
20856;DHT22;63058;49.424;8.420;2024-02-26T13:48:42;22.80;94.40
20856;DHT22;63058;49.424;8.420;2024-02-26T13:51:09;22.80;93.50
20856;DHT22;63058;49.424;8.420;2024-02-26T13:53:34;22.60;92.80
20856;DHT22;63058;49.424;8.420;2024-02-26T13:56:00;22.30;93.40
20856;DHT22;63058;49.424;8.420;2024-02-26T13:58:26;22.20;94.40
20856;DHT22;63058;49.424;8.420;2024-02-26T14:00:53;22.10;94.40
20856;DHT22;63058;49.424;8.420;2024-02-26T14:03:19;22.10;94.80
20856;DHT22;63058;49.424;8.420;2024-02-26T14:05:45;22.10;95.30
20856;DHT22;63058;49.424;8.420;2024-02-26T14:08:11;22.20;95.80
20856;DHT22;63058;49.424;8.420;2024-02-26T14:10:36;22.30;95.20
20856;DHT22;63058;49.424;8.420;2024-02-26T14:13:03;22.40;95.10
20856;DHT22;63058;49.424;8.420;2024-02-26T14:15:29;22.50;95.00
20856;DHT22;63058;49.424;8.420;2024-02-26T14:17:55;22.50;94.30
20856;DHT22;63058;49.424;8.420;2024-02-26T14:20:22;22.60;94.60
20856;DHT22;63058;49.424;8.420;2024-02-26T14:22:50;22.50;94.20
20856;DHT22;63058;49.424;8.420;2024-02-26T14:25:17;22.50;93.30
20856;DHT22;63058;49.424;8.420;2024-02-26T14:27:42;22.30;93.20
20856;DHT22;63058;49.424;8.420;2024-02-26T14:30:08;22.20;94.30
20856;DHT22;63058;49.424;8.420;2024-02-26T14:32:34;22.20;95.90
20856;DHT22;63058;49.424;8.420;2024-02-26T14:35:02;22.40;97.10
20856;DHT22;63058;49.424;8.420;2024-02-26T14:37:28;22.80;97.30
20856;DHT22;63058;49.424;8.420;2024-02-26T14:39:54;23.10;97.70
20856;DHT22;63058;49.424;8.420;2024-02-26T14:42:19;23.60;97.70
20856;DHT22;63058;49.424;8.420;2024-02-26T14:44:45;24.00;96.60
20856;DHT22;63058;49.424;8.420;2024-02-26T14:47:13;24.30;95.30
20856;DHT22;63058;49.424;8.420;2024-02-26T14:49:39;24.60;95.00
20856;DHT22;63058;49.424;8.420;2024-02-26T14:52:04;24.90;95.00
20856;DHT22;63058;49.424;8.420;2024-02-26T14:54:30;25.10;95.00
20856;DHT22;63058;49.424;8.420;2024-02-26T14:57:03;25.40;95.10
20856;DHT22;63058;49.424;8.420;2024-02-26T14:59:30;25.60;94.50
20856;DHT22;63058;49.424;8.420;2024-02-26T15:01:57;25.90;92.70
20856;DHT22;63058;49.424;8.420;2024-02-26T15:04:22;25.80;90.90
20856;DHT22;63058;49.424;8.420;2024-02-26T15:06:48;25.50;89.40
20856;DHT22;63058;49.424;8.420;2024-02-26T15:09:13;25.20;88.80
20856;DHT22;63058;49.424;8.420;2024-02-26T15:11:39;24.80;87.40
20856;DHT22;63058;49.424;8.420;2024-02-26T15:14:09;24.20;85.20
20856;DHT22;63058;49.424;8.420;2024-02-26T15:16:34;23.70;85.20
20856;DHT22;63058;49.424;8.420;2024-02-26T15:19:00;23.10;85.20
20856;DHT22;63058;49.424;8.420;2024-02-26T15:21:25;22.50;86.30
20856;DHT22;63058;49.424;8.420;2024-02-26T15:23:51;22.10;87.40
20856;DHT22;63058;49.424;8.420;2024-02-26T15:26:19;21.60;88.80
20856;DHT22;63058;49.424;8.420;2024-02-26T15:28:45;21.20;90.30
20856;DHT22;63058;49.424;8.420;2024-02-26T15:31:11;21.00;91.10